sensor_id;sensor_type;location;lat;lon;timestamp;P1;durP1;ratioP1;P2;durP2;ratioP2
58472;SDS011;44775;51.564;5.460;2024-03-06T00:01:28;65.45;;;38.22;;
58472;SDS011;44775;51.564;5.460;2024-03-06T00:03:53;64.93;;;38.10;;
58472;SDS011;44775;51.564;5.460;2024-03-06T00:06:18;69.07;;;37.65;;
58472;SDS011;44775;51.564;5.460;2024-03-06T00:08:43;69.65;;;39.35;;
58472;SDS011;44775;51.564;5.460;2024-03-06T00:11:09;63.83;;;35.95;;
58472;SDS011;44775;51.564;5.460;2024-03-06T00:13:34;65.75;;;38.20;;
58472;SDS011;44775;51.564;5.460;2024-03-06T00:15:59;64.18;;;35.72;;
58472;SDS011;44775;51.564;5.460;2024-03-06T00:18:25;66.03;;;38.33;;
58472;SDS011;44775;51.564;5.460;2024-03-06T00:20:50;61.25;;;36.38;;
58472;SDS011;44775;51.564;5.460;2024-03-06T00:23:15;56.65;;;33.78;;
58472;SDS011;44775;51.564;5.460;2024-03-06T00:25:40;69.65;;;37.83;;
58472;SDS011;44775;51.564;5.460;2024-03-06T00:28:06;57.97;;;34.30;;
58472;SDS011;44775;51.564;5.460;2024-03-06T00:30:31;66.15;;;37.17;;
58472;SDS011;44775;51.564;5.460;2024-03-06T00:32:57;66.85;;;39.33;;
58472;SDS011;44775;51.564;5.460;2024-03-06T00:35:23;68.45;;;38.20;;
58472;SDS011;44775;51.564;5.460;2024-03-06T00:37:49;65.00;;;36.22;;
58472;SDS011;44775;51.564;5.460;2024-03-06T00:40:14;69.80;;;36.38;;
58472;SDS011;44775;51.564;5.460;2024-03-06T00:42:39;64.25;;;37.10;;
58472;SDS011;44775;51.564;5.460;2024-03-06T00:45:06;72.50;;;39.33;;
58472;SDS011;44775;51.564;5.460;2024-03-06T00:47:31;77.57;;;40.85;;
58472;SDS011;44775;51.564;5.460;2024-03-06T00:49:59;72.07;;;40.75;;
58472;SDS011;44775;51.564;5.460;2024-03-06T00:52:24;69.22;;;39.58;;
58472;SDS011;44775;51.564;5.460;2024-03-06T00:54:50;71.82;;;38.97;;
58472;SDS011;44775;51.564;5.460;2024-03-06T00:57:15;70.13;;;39.17;;
58472;SDS011;44775;51.564;5.460;2024-03-06T00:59:40;73.72;;;39.17;;
58472;SDS011;44775;51.564;5.460;2024-03-06T01:02:05;67.60;;;37.15;;
58472;SDS011;44775;51.564;5.460;2024-03-06T01:04:31;76.15;;;39.72;;
58472;SDS011;44775;51.564;5.460;2024-03-06T01:06:56;62.97;;;35.55;;
58472;SDS011;44775;51.564;5.460;2024-03-06T01:09:23;71.20;;;38.08;;
58472;SDS011;44775;51.564;5.460;2024-03-06T01:11:48;73.90;;;39.83;;
58472;SDS011;44775;51.564;5.460;2024-03-06T01:14:14;68.68;;;38.47;;
58472;SDS011;44775;51.564;5.460;2024-03-06T01:16:39;70.13;;;38.42;;
58472;SDS011;44775;51.564;5.460;2024-03-06T01:19:04;64.65;;;37.25;;
58472;SDS011;44775;51.564;5.460;2024-03-06T01:21:30;65.65;;;37.72;;
58472;SDS011;44775;51.564;5.460;2024-03-06T01:23:55;61.20;;;35.42;;
58472;SDS011;44775;51.564;5.460;2024-03-06T01:26:20;68.85;;;37.20;;
58472;SDS011;44775;51.564;5.460;2024-03-06T01:28:46;73.05;;;39.50;;
58472;SDS011;44775;51.564;5.460;2024-03-06T01:31:11;77.93;;;41.53;;
58472;SDS011;44775;51.564;5.460;2024-03-06T01:33:36;73.65;;;38.83;;
58472;SDS011;44775;51.564;5.460;2024-03-06T01:36:01;79.20;;;42.42;;
58472;SDS011;44775;51.564;5.460;2024-03-06T01:38:27;81.68;;;40.80;;
58472;SDS011;44775;51.564;5.460;2024-03-06T01:40:52;75.28;;;40.70;;
58472;SDS011;44775;51.564;5.460;2024-03-06T01:43:22;84.38;;;41.83;;
58472;SDS011;44775;51.564;5.460;2024-03-06T01:45:49;84.20;;;43.42;;
58472;SDS011;44775;51.564;5.460;2024-03-06T01:48:16;78.75;;;39.97;;
58472;SDS011;44775;51.564;5.460;2024-03-06T01:50:42;83.15;;;41.38;;
58472;SDS011;44775;51.564;5.460;2024-03-06T01:53:08;80.35;;;43.08;;
58472;SDS011;44775;51.564;5.460;2024-03-06T01:55:34;81.53;;;42.97;;
58472;SDS011;44775;51.564;5.460;2024-03-06T01:58:00;77.53;;;39.67;;
58472;SDS011;44775;51.564;5.460;2024-03-06T02:00:25;78.10;;;42.90;;
58472;SDS011;44775;51.564;5.460;2024-03-06T02:02:51;81.20;;;41.33;;
58472;SDS011;44775;51.564;5.460;2024-03-06T02:05:16;82.07;;;42.85;;
58472;SDS011;44775;51.564;5.460;2024-03-06T02:07:42;83.22;;;42.85;;
58472;SDS011;44775;51.564;5.460;2024-03-06T02:10:08;76.50;;;41.17;;
58472;SDS011;44775;51.564;5.460;2024-03-06T02:12:35;77.22;;;41.17;;
58472;SDS011;44775;51.564;5.460;2024-03-06T02:15:01;79.90;;;42.90;;
58472;SDS011;44775;51.564;5.460;2024-03-06T02:17:28;81.18;;;42.78;;
58472;SDS011;44775;51.564;5.460;2024-03-06T02:19:54;81.93;;;43.15;;
58472;SDS011;44775;51.564;5.460;2024-03-06T02:22:20;78.38;;;41.55;;
58472;SDS011;44775;51.564;5.460;2024-03-06T02:24:47;84.95;;;44.25;;
58472;SDS011;44775;51.564;5.460;2024-03-06T02:27:13;84.32;;;42.72;;
58472;SDS011;44775;51.564;5.460;2024-03-06T02:29:38;88.40;;;43.75;;
58472;SDS011;44775;51.564;5.460;2024-03-06T02:32:04;82.65;;;43.90;;
58472;SDS011;44775;51.564;5.460;2024-03-06T02:34:29;88.68;;;46.83;;
58472;SDS011;44775;51.564;5.460;2024-03-06T02:36:57;82.33;;;45.60;;
58472;SDS011;44775;51.564;5.460;2024-03-06T02:39:23;87.70;;;46.67;;
58472;SDS011;44775;51.564;5.460;2024-03-06T02:41:48;138.55;;;45.88;;
58472;SDS011;44775;51.564;5.460;2024-03-06T02:44:14;74.97;;;44.28;;
58472;SDS011;44775;51.564;5.460;2024-03-06T02:46:39;267.80;;;49.33;;
58472;SDS011;44775;51.564;5.460;2024-03-06T02:49:05;86.78;;;45.00;;
58472;SDS011;44775;51.564;5.460;2024-03-06T02:51:32;89.50;;;42.60;;
58472;SDS011;44775;51.564;5.460;2024-03-06T02:53:58;243.50;;;46.55;;
58472;SDS011;44775;51.564;5.460;2024-03-06T02:56:23;83.85;;;41.92;;
58472;SDS011;44775;51.564;5.460;2024-03-06T02:58:48;74.15;;;41.58;;
58472;SDS011;44775;51.564;5.460;2024-03-06T03:01:14;84.53;;;43.10;;
58472;SDS011;44775;51.564;5.460;2024-03-06T03:03:40;83.57;;;43.05;;
58472;SDS011;44775;51.564;5.460;2024-03-06T03:06:06;83.82;;;42.78;;
58472;SDS011;44775;51.564;5.460;2024-03-06T03:08:32;97.15;;;46.40;;
58472;SDS011;44775;51.564;5.460;2024-03-06T03:10:57;105.65;;;45.30;;
58472;SDS011;44775;51.564;5.460;2024-03-06T03:13:22;89.60;;;44.30;;
58472;SDS011;44775;51.564;5.460;2024-03-06T03:15:48;96.72;;;47.30;;
58472;SDS011;44775;51.564;5.460;2024-03-06T03:18:13;92.45;;;46.50;;
58472;SDS011;44775;51.564;5.460;2024-03-06T03:20:38;90.35;;;44.60;;
58472;SDS011;44775;51.564;5.460;2024-03-06T03:23:04;102.18;;;46.35;;
58472;SDS011;44775;51.564;5.460;2024-03-06T03:25:30;90.70;;;45.85;;
58472;SDS011;44775;51.564;5.460;2024-03-06T03:27:56;92.60;;;45.97;;
58472;SDS011;44775;51.564;5.460;2024-03-06T03:30:21;100.68;;;47.72;;
58472;SDS011;44775;51.564;5.460;2024-03-06T03:32:47;95.22;;;45.58;;
58472;SDS011;44775;51.564;5.460;2024-03-06T03:35:13;91.20;;;46.25;;
58472;SDS011;44775;51.564;5.460;2024-03-06T03:37:38;85.93;;;43.47;;
58472;SDS011;44775;51.564;5.460;2024-03-06T03:40:04;91.70;;;44.58;;
58472;SDS011;44775;51.564;5.460;2024-03-06T03:42:30;85.88;;;43.42;;
58472;SDS011;44775;51.564;5.460;2024-03-06T03:44:55;90.45;;;45.30;;
58472;SDS011;44775;51.564;5.460;2024-03-06T03:47:21;95.00;;;47.15;;
58472;SDS011;44775;51.564;5.460;2024-03-06T03:49:46;90.32;;;45.65;;
58472;SDS011;44775;51.564;5.460;2024-03-06T03:52:12;89.97;;;46.13;;
58472;SDS011;44775;51.564;5.460;2024-03-06T03:54:38;89.55;;;45.78;;
58472;SDS011;44775;51.564;5.460;2024-03-06T03:57:03;90.65;;;45.55;;
58472;SDS011;44775;51.564;5.460;2024-03-06T03:59:28;82.93;;;43.35;;
58472;SDS011;44775;51.564;5.460;2024-03-06T04:01:53;83.05;;;42.85;;
58472;SDS011;44775;51.564;5.460;2024-03-06T04:04:19;86.50;;;45.08;;
58472;SDS011;44775;51.564;5.460;2024-03-06T04:06:44;90.93;;;45.92;;
58472;SDS011;44775;51.564;5.460;2024-03-06T04:09:10;86.65;;;44.63;;
58472;SDS011;44775;51.564;5.460;2024-03-06T04:11:36;83.63;;;44.42;;
58472;SDS011;44775;51.564;5.460;2024-03-06T04:14:03;80.07;;;43.17;;
58472;SDS011;44775;51.564;5.460;2024-03-06T04:16:34;80.00;;;43.65;;
58472;SDS011;44775;51.564;5.460;2024-03-06T04:19:00;79.45;;;42.22;;
58472;SDS011;44775;51.564;5.460;2024-03-06T04:21:25;79.30;;;42.90;;
58472;SDS011;44775;51.564;5.460;2024-03-06T04:23:51;82.35;;;44.10;;
58472;SDS011;44775;51.564;5.460;2024-03-06T04:26:16;79.40;;;43.00;;
58472;SDS011;44775;51.564;5.460;2024-03-06T04:28:42;84.78;;;45.55;;
58472;SDS011;44775;51.564;5.460;2024-03-06T04:31:08;77.93;;;41.95;;
58472;SDS011;44775;51.564;5.460;2024-03-06T04:33:34;71.75;;;39.45;;
58472;SDS011;44775;51.564;5.460;2024-03-06T04:36:03;71.20;;;39.78;;
58472;SDS011;44775;51.564;5.460;2024-03-06T04:38:30;74.35;;;39.92;;
58472;SDS011;44775;51.564;5.460;2024-03-06T04:40:56;75.55;;;42.28;;
58472;SDS011;44775;51.564;5.460;2024-03-06T04:43:21;74.35;;;39.67;;
58472;SDS011;44775;51.564;5.460;2024-03-06T04:45:47;70.97;;;41.40;;
58472;SDS011;44775;51.564;5.460;2024-03-06T04:48:12;65.88;;;41.00;;
58472;SDS011;44775;51.564;5.460;2024-03-06T04:50:37;64.47;;;39.17;;
58472;SDS011;44775;51.564;5.460;2024-03-06T04:53:03;68.22;;;40.63;;
58472;SDS011;44775;51.564;5.460;2024-03-06T04:55:28;65.85;;;39.53;;
58472;SDS011;44775;51.564;5.460;2024-03-06T04:57:55;68.03;;;40.38;;
58472;SDS011;44775;51.564;5.460;2024-03-06T05:00:20;161.10;;;39.15;;
58472;SDS011;44775;51.564;5.460;2024-03-06T05:02:46;64.05;;;36.00;;
58472;SDS011;44775;51.564;5.460;2024-03-06T05:05:13;58.70;;;35.60;;
58472;SDS011;44775;51.564;5.460;2024-03-06T05:07:38;55.53;;;35.58;;
58472;SDS011;44775;51.564;5.460;2024-03-06T05:10:04;64.22;;;37.92;;
58472;SDS011;44775;51.564;5.460;2024-03-06T05:12:32;62.58;;;37.10;;
58472;SDS011;44775;51.564;5.460;2024-03-06T05:14:59;75.95;;;39.25;;
58472;SDS011;44775;51.564;5.460;2024-03-06T05:17:24;74.72;;;41.92;;
58472;SDS011;44775;51.564;5.460;2024-03-06T05:19:50;105.15;;;41.47;;
58472;SDS011;44775;51.564;5.460;2024-03-06T05:22:16;85.82;;;42.03;;
58472;SDS011;44775;51.564;5.460;2024-03-06T05:24:42;87.07;;;41.05;;
58472;SDS011;44775;51.564;5.460;2024-03-06T05:27:07;124.65;;;40.78;;
58472;SDS011;44775;51.564;5.460;2024-03-06T05:29:34;607.30;;;57.08;;
58472;SDS011;44775;51.564;5.460;2024-03-06T05:32:01;191.68;;;43.28;;
58472;SDS011;44775;51.564;5.460;2024-03-06T05:34:26;238.00;;;45.78;;
58472;SDS011;44775;51.564;5.460;2024-03-06T05:36:51;230.20;;;45.55;;
58472;SDS011;44775;51.564;5.460;2024-03-06T05:39:17;289.88;;;47.10;;
58472;SDS011;44775;51.564;5.460;2024-03-06T05:41:42;200.30;;;44.25;;
58472;SDS011;44775;51.564;5.460;2024-03-06T05:44:08;226.60;;;43.10;;
58472;SDS011;44775;51.564;5.460;2024-03-06T05:46:33;314.00;;;48.83;;
58472;SDS011;44775;51.564;5.460;2024-03-06T05:48:59;91.03;;;42.17;;
58472;SDS011;44775;51.564;5.460;2024-03-06T05:51:24;75.47;;;40.78;;
58472;SDS011;44775;51.564;5.460;2024-03-06T05:53:50;79.07;;;43.35;;
58472;SDS011;44775;51.564;5.460;2024-03-06T05:56:18;77.47;;;44.20;;
58472;SDS011;44775;51.564;5.460;2024-03-06T05:58:43;75.00;;;41.97;;
58472;SDS011;44775;51.564;5.460;2024-03-06T06:01:12;76.28;;;42.47;;
58472;SDS011;44775;51.564;5.460;2024-03-06T06:03:40;77.70;;;41.38;;
58472;SDS011;44775;51.564;5.460;2024-03-06T06:06:06;79.32;;;42.25;;
58472;SDS011;44775;51.564;5.460;2024-03-06T06:08:33;65.90;;;39.63;;
58472;SDS011;44775;51.564;5.460;2024-03-06T06:10:59;72.80;;;41.80;;
58472;SDS011;44775;51.564;5.460;2024-03-06T06:13:24;68.22;;;39.88;;
58472;SDS011;44775;51.564;5.460;2024-03-06T06:15:49;70.95;;;39.55;;
58472;SDS011;44775;51.564;5.460;2024-03-06T06:18:14;75.85;;;42.88;;
58472;SDS011;44775;51.564;5.460;2024-03-06T06:20:41;77.18;;;41.58;;
58472;SDS011;44775;51.564;5.460;2024-03-06T06:23:07;69.03;;;40.17;;
58472;SDS011;44775;51.564;5.460;2024-03-06T06:25:32;74.70;;;42.80;;
58472;SDS011;44775;51.564;5.460;2024-03-06T06:27:58;71.63;;;39.78;;
58472;SDS011;44775;51.564;5.460;2024-03-06T06:30:24;81.97;;;41.58;;
58472;SDS011;44775;51.564;5.460;2024-03-06T06:32:49;78.85;;;42.80;;
58472;SDS011;44775;51.564;5.460;2024-03-06T06:35:14;87.97;;;41.25;;
58472;SDS011;44775;51.564;5.460;2024-03-06T06:37:40;74.20;;;42.17;;
58472;SDS011;44775;51.564;5.460;2024-03-06T06:40:06;70.72;;;40.30;;
58472;SDS011;44775;51.564;5.460;2024-03-06T06:42:32;78.05;;;43.60;;
58472;SDS011;44775;51.564;5.460;2024-03-06T06:44:58;75.45;;;42.85;;
58472;SDS011;44775;51.564;5.460;2024-03-06T06:47:24;80.00;;;44.92;;
58472;SDS011;44775;51.564;5.460;2024-03-06T06:49:49;85.57;;;48.28;;
58472;SDS011;44775;51.564;5.460;2024-03-06T06:52:15;96.85;;;50.97;;
58472;SDS011;44775;51.564;5.460;2024-03-06T06:54:40;99.85;;;50.42;;
58472;SDS011;44775;51.564;5.460;2024-03-06T06:57:06;90.47;;;48.65;;
58472;SDS011;44775;51.564;5.460;2024-03-06T06:59:31;88.50;;;47.05;;
58472;SDS011;44775;51.564;5.460;2024-03-06T07:01:56;85.65;;;47.17;;
58472;SDS011;44775;51.564;5.460;2024-03-06T07:04:22;85.55;;;46.97;;
58472;SDS011;44775;51.564;5.460;2024-03-06T07:06:49;85.88;;;47.13;;
58472;SDS011;44775;51.564;5.460;2024-03-06T07:09:14;86.20;;;47.03;;
58472;SDS011;44775;51.564;5.460;2024-03-06T07:11:43;83.85;;;48.00;;
58472;SDS011;44775;51.564;5.460;2024-03-06T07:14:09;86.45;;;47.47;;
58472;SDS011;44775;51.564;5.460;2024-03-06T07:16:41;81.18;;;45.13;;
58472;SDS011;44775;51.564;5.460;2024-03-06T07:19:07;79.90;;;42.60;;
58472;SDS011;44775;51.564;5.460;2024-03-06T07:21:32;83.32;;;44.42;;
58472;SDS011;44775;51.564;5.460;2024-03-06T07:23:58;78.07;;;43.55;;
58472;SDS011;44775;51.564;5.460;2024-03-06T07:26:23;87.15;;;45.38;;
58472;SDS011;44775;51.564;5.460;2024-03-06T07:28:48;85.72;;;43.90;;
58472;SDS011;44775;51.564;5.460;2024-03-06T07:31:14;93.68;;;48.45;;
58472;SDS011;44775;51.564;5.460;2024-03-06T07:33:39;86.32;;;45.00;;
58472;SDS011;44775;51.564;5.460;2024-03-06T07:36:04;81.63;;;43.25;;
58472;SDS011;44775;51.564;5.460;2024-03-06T07:38:30;84.22;;;42.13;;
58472;SDS011;44775;51.564;5.460;2024-03-06T07:40:56;82.22;;;42.35;;
58472;SDS011;44775;51.564;5.460;2024-03-06T07:43:21;85.43;;;46.72;;
58472;SDS011;44775;51.564;5.460;2024-03-06T07:45:46;76.88;;;40.78;;
58472;SDS011;44775;51.564;5.460;2024-03-06T07:48:13;83.05;;;44.33;;
58472;SDS011;44775;51.564;5.460;2024-03-06T07:50:39;90.90;;;47.88;;
58472;SDS011;44775;51.564;5.460;2024-03-06T07:53:05;93.50;;;46.92;;
58472;SDS011;44775;51.564;5.460;2024-03-06T07:55:30;95.38;;;49.97;;
58472;SDS011;44775;51.564;5.460;2024-03-06T07:57:55;91.18;;;46.15;;
58472;SDS011;44775;51.564;5.460;2024-03-06T08:00:21;89.38;;;46.40;;
58472;SDS011;44775;51.564;5.460;2024-03-06T08:02:48;87.90;;;47.58;;
58472;SDS011;44775;51.564;5.460;2024-03-06T08:05:17;87.60;;;47.10;;
58472;SDS011;44775;51.564;5.460;2024-03-06T08:07:42;76.18;;;36.47;;
58472;SDS011;44775;51.564;5.460;2024-03-06T08:10:09;43.67;;;24.30;;
58472;SDS011;44775;51.564;5.460;2024-03-06T08:12:34;21.00;;;12.68;;
58472;SDS011;44775;51.564;5.460;2024-03-06T08:15:00;14.57;;;10.65;;
58472;SDS011;44775;51.564;5.460;2024-03-06T08:17:26;11.43;;;8.20;;
58472;SDS011;44775;51.564;5.460;2024-03-06T08:19:52;33.95;;;22.02;;
58472;SDS011;44775;51.564;5.460;2024-03-06T08:22:17;26.58;;;17.67;;
58472;SDS011;44775;51.564;5.460;2024-03-06T08:24:42;6.15;;;5.40;;
58472;SDS011;44775;51.564;5.460;2024-03-06T08:27:08;54.97;;;37.25;;
58472;SDS011;44775;51.564;5.460;2024-03-06T08:29:33;45.05;;;30.63;;
58472;SDS011;44775;51.564;5.460;2024-03-06T08:31:58;33.58;;;22.67;;
58472;SDS011;44775;51.564;5.460;2024-03-06T08:34:24;6.70;;;5.97;;
58472;SDS011;44775;51.564;5.460;2024-03-06T08:36:50;4.70;;;4.20;;
58472;SDS011;44775;51.564;5.460;2024-03-06T08:39:15;4.07;;;3.78;;
58472;SDS011;44775;51.564;5.460;2024-03-06T08:41:42;4.25;;;3.85;;
58472;SDS011;44775;51.564;5.460;2024-03-06T08:44:07;5.78;;;4.05;;
58472;SDS011;44775;51.564;5.460;2024-03-06T08:46:33;3.70;;;3.40;;
58472;SDS011;44775;51.564;5.460;2024-03-06T08:48:58;4.35;;;3.38;;
58472;SDS011;44775;51.564;5.460;2024-03-06T08:51:23;3.72;;;3.20;;
58472;SDS011;44775;51.564;5.460;2024-03-06T08:53:50;4.03;;;3.50;;
58472;SDS011;44775;51.564;5.460;2024-03-06T08:56:15;3.90;;;3.45;;
58472;SDS011;44775;51.564;5.460;2024-03-06T08:58:41;4.32;;;3.53;;
58472;SDS011;44775;51.564;5.460;2024-03-06T09:01:06;3.55;;;3.20;;
58472;SDS011;44775;51.564;5.460;2024-03-06T09:03:31;3.75;;;3.35;;
58472;SDS011;44775;51.564;5.460;2024-03-06T09:05:56;3.60;;;3.30;;
58472;SDS011;44775;51.564;5.460;2024-03-06T09:08:22;4.78;;;3.30;;
58472;SDS011;44775;51.564;5.460;2024-03-06T09:10:47;5.38;;;4.55;;
58472;SDS011;44775;51.564;5.460;2024-03-06T09:13:12;8.00;;;5.82;;
58472;SDS011;44775;51.564;5.460;2024-03-06T09:15:37;4.65;;;3.20;;
58472;SDS011;44775;51.564;5.460;2024-03-06T09:18:03;8.45;;;5.55;;
58472;SDS011;44775;51.564;5.460;2024-03-06T09:20:28;4.57;;;3.08;;
58472;SDS011;44775;51.564;5.460;2024-03-06T09:22:55;4.97;;;3.58;;
58472;SDS011;44775;51.564;5.460;2024-03-06T09:25:21;19.33;;;14.70;;
58472;SDS011;44775;51.564;5.460;2024-03-06T09:27:47;4.95;;;3.47;;
58472;SDS011;44775;51.564;5.460;2024-03-06T09:30:13;5.97;;;4.40;;
58472;SDS011;44775;51.564;5.460;2024-03-06T09:32:38;4.47;;;3.10;;
58472;SDS011;44775;51.564;5.460;2024-03-06T09:35:05;3.95;;;2.88;;
58472;SDS011;44775;51.564;5.460;2024-03-06T09:37:31;3.17;;;2.80;;
58472;SDS011;44775;51.564;5.460;2024-03-06T09:39:56;5.05;;;3.60;;
58472;SDS011;44775;51.564;5.460;2024-03-06T09:42:22;4.38;;;2.88;;
58472;SDS011;44775;51.564;5.460;2024-03-06T09:44:48;4.65;;;3.00;;
58472;SDS011;44775;51.564;5.460;2024-03-06T09:47:14;7.95;;;3.35;;
58472;SDS011;44775;51.564;5.460;2024-03-06T09:49:40;8.82;;;7.55;;
58472;SDS011;44775;51.564;5.460;2024-03-06T09:52:06;3.85;;;2.95;;
58472;SDS011;44775;51.564;5.460;2024-03-06T09:54:31;4.38;;;3.00;;
58472;SDS011;44775;51.564;5.460;2024-03-06T09:56:57;6.40;;;2.90;;
58472;SDS011;44775;51.564;5.460;2024-03-06T09:59:23;3.30;;;2.58;;
58472;SDS011;44775;51.564;5.460;2024-03-06T10:01:50;4.78;;;2.70;;
58472;SDS011;44775;51.564;5.460;2024-03-06T10:06:47;5.30;;;2.70;;
58472;SDS011;44775;51.564;5.460;2024-03-06T10:09:12;5.80;;;2.50;;
58472;SDS011;44775;51.564;5.460;2024-03-06T10:11:41;6.18;;;4.25;;
58472;SDS011;44775;51.564;5.460;2024-03-06T10:14:07;3.30;;;2.50;;
58472;SDS011;44775;51.564;5.460;2024-03-06T10:16:32;3.83;;;3.17;;
58472;SDS011;44775;51.564;5.460;2024-03-06T10:19:14;3.03;;;2.30;;
58472;SDS011;44775;51.564;5.460;2024-03-06T10:21:41;3.92;;;2.20;;
58472;SDS011;44775;51.564;5.460;2024-03-06T10:24:09;3.42;;;2.60;;
58472;SDS011;44775;51.564;5.460;2024-03-06T10:26:34;2.85;;;2.22;;
58472;SDS011;44775;51.564;5.460;2024-03-06T10:29:00;3.85;;;2.35;;
58472;SDS011;44775;51.564;5.460;2024-03-06T10:31:27;3.72;;;2.22;;
58472;SDS011;44775;51.564;5.460;2024-03-06T10:36:20;4.73;;;3.10;;
58472;SDS011;44775;51.564;5.460;2024-03-06T10:38:46;10.02;;;8.18;;
58472;SDS011;44775;51.564;5.460;2024-03-06T10:41:15;3.30;;;2.00;;
58472;SDS011;44775;51.564;5.460;2024-03-06T10:43:49;2.58;;;2.00;;
58472;SDS011;44775;51.564;5.460;2024-03-06T10:46:19;2.78;;;2.00;;
58472;SDS011;44775;51.564;5.460;2024-03-06T10:48:45;2.88;;;2.15;;
58472;SDS011;44775;51.564;5.460;2024-03-06T10:51:14;2.30;;;2.00;;
58472;SDS011;44775;51.564;5.460;2024-03-06T10:53:41;6.82;;;5.32;;
58472;SDS011;44775;51.564;5.460;2024-03-06T10:56:08;3.50;;;2.00;;
58472;SDS011;44775;51.564;5.460;2024-03-06T10:58:34;3.00;;;2.20;;
58472;SDS011;44775;51.564;5.460;2024-03-06T11:01:00;5.30;;;4.45;;
58472;SDS011;44775;51.564;5.460;2024-03-06T11:03:27;2.50;;;2.00;;
58472;SDS011;44775;51.564;5.460;2024-03-06T11:05:54;3.10;;;1.92;;
58472;SDS011;44775;51.564;5.460;2024-03-06T11:08:19;6.28;;;5.18;;
58472;SDS011;44775;51.564;5.460;2024-03-06T11:10:46;2.60;;;2.10;;
58472;SDS011;44775;51.564;5.460;2024-03-06T11:15:42;3.63;;;2.40;;
58472;SDS011;44775;51.564;5.460;2024-03-06T11:20:59;3.15;;;1.95;;
58472;SDS011;44775;51.564;5.460;2024-03-06T11:23:27;4.35;;;1.90;;
58472;SDS011;44775;51.564;5.460;2024-03-06T11:28:21;3.10;;;1.80;;
58472;SDS011;44775;51.564;5.460;2024-03-06T11:30:57;3.95;;;1.90;;
58472;SDS011;44775;51.564;5.460;2024-03-06T11:33:26;2.97;;;2.42;;
58472;SDS011;44775;51.564;5.460;2024-03-06T11:36:20;2.47;;;1.80;;
58472;SDS011;44775;51.564;5.460;2024-03-06T11:38:57;2.83;;;1.60;;
58472;SDS011;44775;51.564;5.460;2024-03-06T11:44:53;2.80;;;1.50;;
58472;SDS011;44775;51.564;5.460;2024-03-06T11:47:23;2.28;;;1.77;;
58472;SDS011;44775;51.564;5.460;2024-03-06T11:49:49;2.92;;;1.70;;
58472;SDS011;44775;51.564;5.460;2024-03-06T11:52:15;3.78;;;2.80;;
58472;SDS011;44775;51.564;5.460;2024-03-06T11:54:40;2.58;;;1.73;;
58472;SDS011;44775;51.564;5.460;2024-03-06T11:57:05;3.17;;;1.90;;
58472;SDS011;44775;51.564;5.460;2024-03-06T11:59:32;4.28;;;1.83;;
58472;SDS011;44775;51.564;5.460;2024-03-06T12:02:04;2.13;;;1.85;;
58472;SDS011;44775;51.564;5.460;2024-03-06T12:04:30;3.17;;;2.13;;
58472;SDS011;44775;51.564;5.460;2024-03-06T12:06:59;2.58;;;2.00;;
58472;SDS011;44775;51.564;5.460;2024-03-06T12:09:29;3.55;;;2.58;;
58472;SDS011;44775;51.564;5.460;2024-03-06T12:11:55;3.50;;;1.70;;
58472;SDS011;44775;51.564;5.460;2024-03-06T12:14:22;3.25;;;1.50;;
58472;SDS011;44775;51.564;5.460;2024-03-06T12:16:58;3.20;;;1.70;;
58472;SDS011;44775;51.564;5.460;2024-03-06T12:19:28;3.97;;;1.70;;
58472;SDS011;44775;51.564;5.460;2024-03-06T12:21:58;3.05;;;1.77;;
58472;SDS011;44775;51.564;5.460;2024-03-06T12:26:59;2.70;;;1.50;;
58472;SDS011;44775;51.564;5.460;2024-03-06T12:31:57;3.38;;;1.52;;
58472;SDS011;44775;51.564;5.460;2024-03-06T12:34:24;2.15;;;1.20;;
58472;SDS011;44775;51.564;5.460;2024-03-06T12:36:49;2.05;;;1.35;;
58472;SDS011;44775;51.564;5.460;2024-03-06T12:39:15;1.25;;;1.00;;
58472;SDS011;44775;51.564;5.460;2024-03-06T12:44:08;2.35;;;1.20;;
58472;SDS011;44775;51.564;5.460;2024-03-06T12:46:33;2.15;;;1.30;;
58472;SDS011;44775;51.564;5.460;2024-03-06T12:48:59;2.47;;;1.33;;
58472;SDS011;44775;51.564;5.460;2024-03-06T12:51:24;3.25;;;1.20;;
58472;SDS011;44775;51.564;5.460;2024-03-06T12:53:50;3.67;;;1.30;;
58472;SDS011;44775;51.564;5.460;2024-03-06T12:56:16;5.25;;;3.85;;
58472;SDS011;44775;51.564;5.460;2024-03-06T12:58:42;3.10;;;1.45;;
58472;SDS011;44775;51.564;5.460;2024-03-06T13:01:07;5.28;;;3.08;;
58472;SDS011;44775;51.564;5.460;2024-03-06T13:03:33;2.42;;;1.40;;
58472;SDS011;44775;51.564;5.460;2024-03-06T13:05:58;2.47;;;1.20;;
58472;SDS011;44775;51.564;5.460;2024-03-06T13:08:24;1.58;;;1.33;;
58472;SDS011;44775;51.564;5.460;2024-03-06T13:10:49;3.03;;;1.42;;
58472;SDS011;44775;51.564;5.460;2024-03-06T13:13:15;4.20;;;1.38;;
58472;SDS011;44775;51.564;5.460;2024-03-06T13:15:40;3.92;;;1.30;;
58472;SDS011;44775;51.564;5.460;2024-03-06T13:18:05;2.70;;;1.70;;
58472;SDS011;44775;51.564;5.460;2024-03-06T13:20:31;2.00;;;1.30;;
58472;SDS011;44775;51.564;5.460;2024-03-06T13:22:57;4.18;;;1.52;;
58472;SDS011;44775;51.564;5.460;2024-03-06T13:25:22;2.92;;;1.23;;
58472;SDS011;44775;51.564;5.460;2024-03-06T13:27:48;6.35;;;2.50;;
58472;SDS011;44775;51.564;5.460;2024-03-06T13:30:14;2.63;;;1.40;;
58472;SDS011;44775;51.564;5.460;2024-03-06T13:32:40;3.28;;;1.45;;
58472;SDS011;44775;51.564;5.460;2024-03-06T13:35:06;3.28;;;1.35;;
58472;SDS011;44775;51.564;5.460;2024-03-06T13:37:32;3.00;;;1.55;;
58472;SDS011;44775;51.564;5.460;2024-03-06T13:39:59;5.20;;;1.40;;
58472;SDS011;44775;51.564;5.460;2024-03-06T13:42:26;2.65;;;1.60;;
58472;SDS011;44775;51.564;5.460;2024-03-06T13:44:52;2.40;;;1.55;;
58472;SDS011;44775;51.564;5.460;2024-03-06T13:47:17;1.92;;;1.50;;
58472;SDS011;44775;51.564;5.460;2024-03-06T13:49:42;2.90;;;1.75;;
58472;SDS011;44775;51.564;5.460;2024-03-06T13:52:09;1.77;;;1.05;;
58472;SDS011;44775;51.564;5.460;2024-03-06T13:54:40;2.10;;;1.17;;
58472;SDS011;44775;51.564;5.460;2024-03-06T13:57:07;2.90;;;1.40;;
58472;SDS011;44775;51.564;5.460;2024-03-06T13:59:33;3.90;;;3.47;;
58472;SDS011;44775;51.564;5.460;2024-03-06T14:02:00;1.85;;;1.30;;
58472;SDS011;44775;51.564;5.460;2024-03-06T14:04:26;1.65;;;1.02;;
58472;SDS011;44775;51.564;5.460;2024-03-06T14:06:52;2.78;;;1.80;;
58472;SDS011;44775;51.564;5.460;2024-03-06T14:09:17;3.90;;;2.45;;
58472;SDS011;44775;51.564;5.460;2024-03-06T14:11:43;2.17;;;1.23;;
58472;SDS011;44775;51.564;5.460;2024-03-06T14:14:08;1.65;;;1.27;;
58472;SDS011;44775;51.564;5.460;2024-03-06T14:16:34;5.13;;;1.70;;
58472;SDS011;44775;51.564;5.460;2024-03-06T14:19:00;3.50;;;2.20;;
58472;SDS011;44775;51.564;5.460;2024-03-06T14:21:25;4.65;;;2.35;;
58472;SDS011;44775;51.564;5.460;2024-03-06T14:23:51;4.47;;;2.65;;
58472;SDS011;44775;51.564;5.460;2024-03-06T14:26:16;4.90;;;3.20;;
58472;SDS011;44775;51.564;5.460;2024-03-06T14:28:41;5.93;;;3.00;;
58472;SDS011;44775;51.564;5.460;2024-03-06T14:31:07;5.57;;;3.10;;
58472;SDS011;44775;51.564;5.460;2024-03-06T14:33:33;4.85;;;3.20;;
58472;SDS011;44775;51.564;5.460;2024-03-06T14:35:58;6.43;;;4.63;;
58472;SDS011;44775;51.564;5.460;2024-03-06T14:38:24;6.53;;;3.35;;
58472;SDS011;44775;51.564;5.460;2024-03-06T14:40:49;5.53;;;3.00;;
58472;SDS011;44775;51.564;5.460;2024-03-06T14:43:14;4.68;;;3.20;;
58472;SDS011;44775;51.564;5.460;2024-03-06T14:45:40;4.60;;;3.10;;
58472;SDS011;44775;51.564;5.460;2024-03-06T14:48:08;5.82;;;2.95;;